createdAt,value
2018-04-21T00:00:56.269Z,57.70
2018-04-21T00:01:56.258Z,55.00
2018-04-21T00:02:56.240Z,53.20
2018-04-21T00:03:56.237Z,61.40
2018-04-21T00:04:56.275Z,56.90
2018-04-21T00:05:56.206Z,54.80
2018-04-21T00:06:56.192Z,53.50
2018-04-21T00:07:56.183Z,54.10
2018-04-21T00:08:56.176Z,52.60
2018-04-21T00:09:56.157Z,57.40
2018-04-21T00:10:56.150Z,58.00
2018-04-21T00:11:56.141Z,55.90
2018-04-21T00:12:56.122Z,58.10
2018-04-21T00:13:56.117Z,57.70
2018-04-21T00:14:56.096Z,62.60
2018-04-21T00:15:56.088Z,56.90
2018-04-21T00:16:56.084Z,55.10
2018-04-21T00:17:56.236Z,55.90
2018-04-21T00:18:56.052Z,60.10
2018-04-21T00:19:56.036Z,57.50
2018-04-21T00:20:56.029Z,57.30
2018-04-21T00:21:56.016Z,58.40
2018-04-21T00:22:56.001Z,55.10
2018-04-21T00:23:55.987Z,58.90
2018-04-21T00:24:55.978Z,56.30
2018-04-21T00:25:55.965Z,53.40
2018-04-21T00:26:55.950Z,60.20
2018-04-21T00:27:55.940Z,60.80
2018-04-21T00:28:55.929Z,62.20
2018-04-21T00:29:55.915Z,63.00
2018-04-21T00:30:55.916Z,56.00
2018-04-21T00:31:55.902Z,55.60
2018-04-21T00:32:55.879Z,63.00
2018-04-21T00:33:56.037Z,61.20
2018-04-21T00:34:55.856Z,63.80
2018-04-21T00:35:55.853Z,59.30
2018-04-21T00:36:55.887Z,62.50
2018-04-21T00:37:55.818Z,61.50
2018-04-21T00:38:55.808Z,53.90
2018-04-21T00:39:55.794Z,61.00
2018-04-21T00:40:55.782Z,58.80
2018-04-21T00:41:55.902Z,61.70
2018-04-21T00:42:55.766Z,57.10
2018-04-21T00:43:55.745Z,57.20
2018-04-21T00:44:55.735Z,61.80
2018-04-21T00:45:55.724Z,68.40
2018-04-21T00:46:55.712Z,65.30
2018-04-21T00:47:55.704Z,62.90
2018-04-21T00:48:55.683Z,62.60
2018-04-21T00:49:55.681Z,63.30
2018-04-21T00:50:55.676Z,61.20
2018-04-21T00:51:55.649Z,69.90
2018-04-21T00:52:55.643Z,63.10
2018-04-21T00:53:55.623Z,68.00
2018-04-21T00:54:55.610Z,64.30
2018-04-21T00:55:55.597Z,60.30
2018-04-21T00:56:55.585Z,57.30
2018-04-21T00:57:55.571Z,59.10
2018-04-21T00:58:55.568Z,67.00
2018-04-21T00:59:55.552Z,64.40
2018-04-21T01:00:55.537Z,57.80
2018-04-21T01:01:55.521Z,54.60
2018-04-21T01:02:55.512Z,60.20
2018-04-21T01:03:55.496Z,62.40
2018-04-21T01:04:55.486Z,58.70
2018-04-21T01:05:55.471Z,64.40
2018-04-21T01:06:55.461Z,66.50
2018-04-21T01:07:55.447Z,61.50
2018-04-21T01:08:55.436Z,65.10
2018-04-21T01:09:55.427Z,59.50
2018-04-21T01:10:55.412Z,61.90
2018-04-21T01:11:55.407Z,61.00
2018-04-21T01:12:55.389Z,64.50
2018-04-21T01:13:55.375Z,63.90
2018-04-21T01:14:55.360Z,63.60
2018-04-21T01:15:55.351Z,67.50
2018-04-21T01:16:55.334Z,65.20
2018-04-21T01:17:55.334Z,66.60
2018-04-21T01:18:55.311Z,68.30
2018-04-21T01:19:55.299Z,66.10
2018-04-21T01:20:55.295Z,68.00
2018-04-21T01:21:55.271Z,65.40
2018-04-21T01:22:55.259Z,63.80
2018-04-21T01:23:55.248Z,62.70
2018-04-21T01:24:55.233Z,63.00
2018-04-21T01:25:55.224Z,63.60
2018-04-21T01:26:55.208Z,67.10
2018-04-21T01:27:55.196Z,64.70
2018-04-21T01:28:55.182Z,67.30
2018-04-21T01:29:55.170Z,66.00
2018-04-21T01:30:55.158Z,67.80
2018-04-21T01:31:55.148Z,67.00
2018-04-21T01:32:55.132Z,66.60
2018-04-21T01:33:55.134Z,68.00
2018-04-21T01:34:55.118Z,71.10
2018-04-21T01:35:55.098Z,61.50
2018-04-21T01:36:55.088Z,67.40
2018-04-21T01:37:55.067Z,67.60
2018-04-21T01:38:55.057Z,66.00
2018-04-21T01:39:55.049Z,71.00
2018-04-21T01:40:55.036Z,69.50
2018-04-21T01:41:55.019Z,67.40
2018-04-21T01:42:55.006Z,68.40
2018-04-21T01:43:55.014Z,69.80
2018-04-21T01:44:54.979Z,70.60
2018-04-21T01:45:54.966Z,67.50
2018-04-21T01:46:54.956Z,70.60
2018-04-21T01:47:54.940Z,71.60
2018-04-21T01:48:54.927Z,75.20
2018-04-21T01:49:54.916Z,72.40
2018-04-21T01:50:54.923Z,77.00
2018-04-21T01:51:54.887Z,68.00
2018-04-21T01:52:54.884Z,75.60
2018-04-21T01:53:54.881Z,72.00
2018-04-21T01:54:54.850Z,73.90
2018-04-21T01:55:54.837Z,70.10
2018-04-21T01:56:54.875Z,71.20
2018-04-21T01:57:54.810Z,72.90
2018-04-21T01:58:54.795Z,76.60
2018-04-21T01:59:54.784Z,73.70
2018-04-21T02:00:54.784Z,75.40
2018-04-21T02:01:54.759Z,77.20
2018-04-21T02:02:54.746Z,80.00
2018-04-21T02:03:54.737Z,78.20
2018-04-21T02:04:54.718Z,82.20
2018-04-21T02:05:54.706Z,81.20
2018-04-21T02:06:54.698Z,78.70
2018-04-21T02:07:54.685Z,80.20
2018-04-21T02:08:54.669Z,81.30
2018-04-21T02:09:54.755Z,79.80
2018-04-21T02:10:54.643Z,76.70
2018-04-21T02:11:54.628Z,85.80
2018-04-21T02:12:54.619Z,80.20
2018-04-21T02:13:54.604Z,85.20
2018-04-21T02:14:54.596Z,87.50
2018-04-21T02:15:54.575Z,83.40
2018-04-21T02:16:54.563Z,89.10
2018-04-21T02:17:54.563Z,82.60
2018-04-21T02:18:54.543Z,83.70
2018-04-21T02:19:54.522Z,84.40
2018-04-21T02:20:54.512Z,91.40
2018-04-21T02:21:54.501Z,84.00
2018-04-21T02:22:54.485Z,85.90
2018-04-21T02:23:54.468Z,89.40
2018-04-21T02:24:54.457Z,92.20
2018-04-21T02:25:54.535Z,95.20
2018-04-21T02:26:54.431Z,89.70
2018-04-21T02:27:54.416Z,91.80
2018-04-21T02:28:54.401Z,89.20
2018-04-21T02:29:54.388Z,90.90
2018-04-21T02:30:54.376Z,93.20
2018-04-21T02:31:54.365Z,92.30
2018-04-21T02:32:54.351Z,98.80
2018-04-21T02:33:54.332Z,93.50
2018-04-21T02:34:54.321Z,97.90
2018-04-21T02:35:54.310Z,104.10
2018-04-21T02:36:54.305Z,92.20
2018-04-21T02:37:54.280Z,95.20
2018-04-21T02:38:54.271Z,96.60
2018-04-21T02:39:54.255Z,107.00
2018-04-21T02:40:54.239Z,99.20
2018-04-21T02:41:54.230Z,105.10
2018-04-21T02:42:54.215Z,99.90
2018-04-21T02:43:54.211Z,99.90
2018-04-21T02:44:54.202Z,104.30
2018-04-21T02:45:54.175Z,100.00
2018-04-21T02:46:54.179Z,108.70
2018-04-21T02:47:54.149Z,105.90
2018-04-21T02:48:54.143Z,109.30
2018-04-21T02:49:54.169Z,108.10
2018-04-21T02:50:54.109Z,103.50
2018-04-21T02:51:54.101Z,103.80
2018-04-21T02:52:54.080Z,112.30
2018-04-21T02:53:54.071Z,107.40
2018-04-21T02:54:54.048Z,113.80
2018-04-21T02:55:54.044Z,113.50
2018-04-21T02:56:54.026Z,105.10
2018-04-21T02:57:54.008Z,120.80
2018-04-21T02:58:53.997Z,118.30
2018-04-21T02:59:53.984Z,106.50
2018-04-21T03:00:53.973Z,118.30
2018-04-21T03:01:53.962Z,116.40
2018-04-21T03:02:53.978Z,110.40
2018-04-21T03:03:53.927Z,118.30
2018-04-21T03:04:53.920Z,119.20
2018-04-21T03:05:53.925Z,118.30
2018-04-21T03:06:53.894Z,117.60
2018-04-21T03:07:53.873Z,122.80
2018-04-21T03:08:53.870Z,114.60
2018-04-21T03:09:53.847Z,115.10
2018-04-21T03:10:53.835Z,122.00
2018-04-21T03:11:53.820Z,124.60
2018-04-21T03:12:53.806Z,117.20
2018-04-21T03:13:53.790Z,130.70
2018-04-21T03:14:53.776Z,122.60
2018-04-21T03:15:53.764Z,119.50
2018-04-21T03:16:53.755Z,123.30
2018-04-21T03:17:53.744Z,119.70
2018-04-21T03:18:53.882Z,122.90
2018-04-21T03:19:53.713Z,120.40
2018-04-21T03:20:53.700Z,124.70
2018-04-21T03:21:53.683Z,120.00
2018-04-21T03:22:53.668Z,125.80
2018-04-21T03:23:53.653Z,123.80
2018-04-21T03:24:53.638Z,117.40
2018-04-21T03:25:53.660Z,119.30
2018-04-21T03:26:53.623Z,123.40
2018-04-21T03:27:53.597Z,124.60
2018-04-21T03:28:53.585Z,125.60
2018-04-21T03:29:53.571Z,124.70
2018-04-21T03:30:53.557Z,126.60
2018-04-21T03:31:53.556Z,128.30
2018-04-21T03:32:53.529Z,125.10
2018-04-21T03:33:53.514Z,127.70
2018-04-21T03:34:53.501Z,119.60
2018-04-21T03:35:53.497Z,126.90
2018-04-21T03:36:53.473Z,124.20
2018-04-21T03:37:53.458Z,125.20
2018-04-21T03:38:53.453Z,129.60
2018-04-21T03:39:53.452Z,132.00
2018-04-21T03:40:53.419Z,126.30
2018-04-21T03:41:53.402Z,132.50
2018-04-21T03:42:53.388Z,129.50
2018-04-21T03:43:53.381Z,129.40
2018-04-21T03:44:53.362Z,137.30
2018-04-21T03:45:53.350Z,136.30
2018-04-21T03:46:53.332Z,137.70
2018-04-21T03:47:53.319Z,141.10
2018-04-21T03:48:53.310Z,139.80
2018-04-21T03:49:53.293Z,140.50
2018-04-21T03:50:53.283Z,136.50
2018-04-21T03:51:53.265Z,145.10
2018-04-21T03:52:53.251Z,139.30
2018-04-21T03:53:53.239Z,137.20
2018-04-21T03:54:53.301Z,150.60
2018-04-21T03:55:53.211Z,140.70
2018-04-21T03:56:53.194Z,145.90
2018-04-21T03:57:53.234Z,146.00
2018-04-21T03:58:53.168Z,143.30
2018-04-21T03:59:53.149Z,143.00
2018-04-21T04:00:53.139Z,143.00
2018-04-21T04:01:53.122Z,157.40
2018-04-21T04:02:53.114Z,147.40
2018-04-21T04:03:53.098Z,147.10
2018-04-21T04:04:53.079Z,156.40
2018-04-21T04:05:53.074Z,149.10
2018-04-21T04:06:53.061Z,151.50
2018-04-21T04:07:53.157Z,153.50
2018-04-21T04:08:53.027Z,154.00
2018-04-21T04:09:53.017Z,154.20
2018-04-21T04:10:52.996Z,154.70
2018-04-21T04:11:52.982Z,148.80
2018-04-21T04:12:52.969Z,159.00
2018-04-21T04:13:52.952Z,154.30
2018-04-21T04:14:52.939Z,157.70
2018-04-21T04:15:52.925Z,151.00
2018-04-21T04:16:52.911Z,157.90
2018-04-21T04:17:52.897Z,158.50
2018-04-21T04:18:52.893Z,156.40
2018-04-21T04:19:52.869Z,159.70
2018-04-21T04:20:52.864Z,162.30
2018-04-21T04:21:52.891Z,162.90
2018-04-21T04:22:52.826Z,168.90
2018-04-21T04:23:52.820Z,158.60
2018-04-21T04:24:52.795Z,168.00
2018-04-21T04:25:52.903Z,166.70
2018-04-21T04:26:52.768Z,164.50
2018-04-21T04:27:52.755Z,169.20
2018-04-21T04:28:52.802Z,177.70
2018-04-21T04:29:52.725Z,167.00
2018-04-21T04:30:52.713Z,173.70
2018-04-21T04:31:52.695Z,176.70
2018-04-21T04:32:52.680Z,164.50
2018-04-21T04:33:52.672Z,169.80
2018-04-21T04:34:52.654Z,160.20
2018-04-21T04:35:52.636Z,175.70
2018-04-21T04:36:52.625Z,173.50
2018-04-21T04:37:52.609Z,168.50
2018-04-21T04:38:52.593Z,171.20
2018-04-21T04:39:52.594Z,178.30
2018-04-21T04:40:52.565Z,169.30
2018-04-21T04:41:52.671Z,181.30
2018-04-21T04:42:52.536Z,173.10
2018-04-21T04:43:52.523Z,177.90
2018-04-21T04:44:52.529Z,185.90
2018-04-21T04:45:52.494Z,182.50
2018-04-21T04:46:52.480Z,184.00
2018-04-21T04:47:52.463Z,190.40
2018-04-21T04:48:52.447Z,189.70
2018-04-21T04:49:52.433Z,194.20
2018-04-21T04:50:52.427Z,192.70
2018-04-21T04:51:52.404Z,187.70
2018-04-21T04:52:52.392Z,191.80
2018-04-21T04:53:52.376Z,194.90
2018-04-21T04:54:52.380Z,208.90
2018-04-21T04:55:52.348Z,198.40
2018-04-21T04:56:52.342Z,197.70
2018-04-21T04:57:52.317Z,200.00
2018-04-21T04:58:52.307Z,198.90
2018-04-21T04:59:52.293Z,202.50
2018-04-21T05:00:52.413Z,203.40
2018-04-21T05:01:52.262Z,193.20
2018-04-21T05:02:52.244Z,200.40
2018-04-21T05:03:52.237Z,203.60
2018-04-21T05:04:52.221Z,206.40
2018-04-21T05:05:52.202Z,206.20
2018-04-21T05:06:52.187Z,207.60
2018-04-21T05:07:52.231Z,209.30
2018-04-21T05:08:52.161Z,198.40
2018-04-21T05:09:52.144Z,209.70
2018-04-21T05:10:52.131Z,205.30
2018-04-21T05:11:52.116Z,208.40
2018-04-21T05:12:52.099Z,208.20
2018-04-21T05:13:52.101Z,207.60
2018-04-21T05:14:52.071Z,222.30
2018-04-21T05:15:52.059Z,204.60
2018-04-21T05:16:52.043Z,219.40
2018-04-21T05:17:52.032Z,223.30
2018-04-21T05:18:52.017Z,222.00
2018-04-21T05:19:52.000Z,222.70
2018-04-21T05:20:51.994Z,210.20
2018-04-21T05:21:52.025Z,220.80
2018-04-21T05:22:51.982Z,223.10
2018-04-21T05:23:51.941Z,224.90
2018-04-21T05:24:51.943Z,221.10
2018-04-21T05:25:51.911Z,207.90
2018-04-21T05:26:51.899Z,222.30
2018-04-21T05:27:51.888Z,222.10
2018-04-21T05:28:51.878Z,223.60
2018-04-21T05:29:51.854Z,209.30
2018-04-21T05:30:51.898Z,213.80
2018-04-21T05:31:51.829Z,223.50
2018-04-21T05:32:51.820Z,212.90
2018-04-21T05:33:51.833Z,224.90
2018-04-21T05:34:51.784Z,210.70
2018-04-21T05:35:51.807Z,212.20
2018-04-21T05:36:51.758Z,200.50
2018-04-21T05:37:51.741Z,206.00
2018-04-21T05:38:51.732Z,204.50
2018-04-21T05:39:51.719Z,208.30
2018-04-21T05:40:51.700Z,207.90
2018-04-21T05:41:51.688Z,202.50
2018-04-21T05:42:51.687Z,201.00
2018-04-21T05:43:51.657Z,205.80
2018-04-21T05:44:51.663Z,199.20
2018-04-21T05:45:51.637Z,208.80
2018-04-21T05:46:51.635Z,203.70
2018-04-21T05:47:51.606Z,193.90
2018-04-21T05:48:51.592Z,199.10
2018-04-21T05:49:51.588Z,196.00
2018-04-21T05:50:51.568Z,212.60
2018-04-21T05:51:51.557Z,209.30
2018-04-21T05:52:51.546Z,199.80
2018-04-21T05:53:51.538Z,209.20
2018-04-21T05:54:51.519Z,196.20
2018-04-21T05:55:51.508Z,195.30
2018-04-21T05:56:51.504Z,200.60
2018-04-21T05:57:51.480Z,199.70
2018-04-21T05:58:51.475Z,193.50
2018-04-21T05:59:51.458Z,203.40
2018-04-21T06:00:51.456Z,198.70
2018-04-21T06:01:51.445Z,199.30
2018-04-21T06:02:51.427Z,194.30
2018-04-21T06:03:51.500Z,202.50
2018-04-21T06:04:51.411Z,193.00
2018-04-21T06:05:51.390Z,202.70
2018-04-21T06:06:51.381Z,187.40
2018-04-21T06:07:51.384Z,187.70
2018-04-21T06:08:51.358Z,201.60
2018-04-21T06:09:51.348Z,191.00
2018-04-21T06:10:51.338Z,206.60
2018-04-21T06:11:51.326Z,233.60
2018-04-21T06:12:51.323Z,248.50
2018-04-21T06:13:51.331Z,272.30
2018-04-21T06:14:51.296Z,242.50
2018-04-21T06:15:51.313Z,257.30
2018-04-21T06:16:51.275Z,263.00
2018-04-21T06:17:51.271Z,223.50
2018-04-21T06:18:51.252Z,283.90
2018-04-21T06:19:51.243Z,238.00
2018-04-21T06:20:51.257Z,219.60
2018-04-21T06:21:51.223Z,246.10
2018-04-21T06:22:51.217Z,224.50
2018-04-21T06:23:51.208Z,195.90
2018-04-21T06:24:51.201Z,230.00
2018-04-21T06:25:51.183Z,230.90
2018-04-21T06:26:51.173Z,233.60
2018-04-21T06:27:51.165Z,205.70
2018-04-21T06:28:51.159Z,203.20
2018-04-21T06:29:51.154Z,205.10
2018-04-21T06:30:51.136Z,216.90
2018-04-21T06:31:51.128Z,217.90
2018-04-21T06:32:51.127Z,186.40
2018-04-21T06:33:51.106Z,196.10
2018-04-21T06:34:51.111Z,180.50
2018-04-21T06:35:51.101Z,192.70
2018-04-21T06:36:51.181Z,208.70
2018-04-21T06:37:51.089Z,184.70
2018-04-21T06:38:51.065Z,202.40
2018-04-21T06:39:51.061Z,191.10
2018-04-21T06:40:51.048Z,184.50
2018-04-21T06:41:51.049Z,182.30
2018-04-21T06:42:51.036Z,203.20
2018-04-21T06:43:51.024Z,169.90
2018-04-21T06:44:51.021Z,177.50
2018-04-21T06:45:51.030Z,170.90
2018-04-21T06:46:51.002Z,163.40
2018-04-21T06:47:50.983Z,197.10
2018-04-21T06:48:50.983Z,173.90
2018-04-21T06:49:50.966Z,185.70
2018-04-21T06:50:50.962Z,164.90
2018-04-21T06:51:50.962Z,177.60
2018-04-21T06:52:50.942Z,174.40
2018-04-21T06:53:50.926Z,169.90
2018-04-21T06:54:50.922Z,165.30
2018-04-21T06:55:50.910Z,166.80
2018-04-21T06:56:50.901Z,155.90
2018-04-21T06:57:50.892Z,164.00
2018-04-21T06:58:50.881Z,161.30
2018-04-21T06:59:50.878Z,152.50
2018-04-21T07:00:50.861Z,151.40
2018-04-21T07:01:50.849Z,165.80
2018-04-21T07:02:50.849Z,149.80
2018-04-21T07:03:50.836Z,149.50
2018-04-21T07:04:50.830Z,141.50
2018-04-21T07:05:50.816Z,148.00
2018-04-21T07:06:50.801Z,152.20
2018-04-21T07:07:50.799Z,143.60
2018-04-21T07:08:50.779Z,144.80
2018-04-21T07:09:50.773Z,158.50
2018-04-21T07:10:50.757Z,155.30
2018-04-21T07:11:50.760Z,154.00
2018-04-21T07:12:50.744Z,147.10
2018-04-21T07:13:50.833Z,135.80
2018-04-21T07:14:50.721Z,145.20
2018-04-21T07:15:50.711Z,142.10
2018-04-21T07:16:50.698Z,144.10
2018-04-21T07:17:50.686Z,140.40
2018-04-21T07:18:50.686Z,140.50
2018-04-21T07:19:50.667Z,145.20
2018-04-21T07:20:50.656Z,144.80
2018-04-21T07:21:50.653Z,142.10
2018-04-21T07:22:50.639Z,140.10
2018-04-21T07:23:50.623Z,144.60
2018-04-21T07:24:50.616Z,141.10
2018-04-21T07:25:50.601Z,146.00
2018-04-21T07:26:50.592Z,141.20
2018-04-21T07:27:50.579Z,142.50
2018-04-21T07:28:50.575Z,132.60
2018-04-21T07:29:50.572Z,137.80
2018-04-21T07:30:50.564Z,132.70
2018-04-21T07:31:50.546Z,135.60
2018-04-21T07:32:50.535Z,137.80
2018-04-21T07:33:50.520Z,142.00
2018-04-21T07:34:50.509Z,134.20
2018-04-21T07:35:50.525Z,156.50
2018-04-21T07:36:50.501Z,154.30
2018-04-21T07:37:50.490Z,142.00
2018-04-21T07:38:50.474Z,147.80
2018-04-21T07:39:50.477Z,154.70
2018-04-21T07:40:50.453Z,139.30
2018-04-21T07:41:50.444Z,145.20
2018-04-21T07:42:50.452Z,154.30
2018-04-21T07:43:50.426Z,152.70
2018-04-21T07:44:50.413Z,160.80
2018-04-21T07:45:50.407Z,150.30
2018-04-21T07:46:50.413Z,137.70
2018-04-21T07:47:50.413Z,145.70
2018-04-21T07:48:50.376Z,129.70
2018-04-21T07:49:50.366Z,129.50
2018-04-21T07:50:50.358Z,136.20
2018-04-21T07:51:50.345Z,132.10
2018-04-21T07:52:50.342Z,125.30
2018-04-21T07:53:50.377Z,130.40
2018-04-21T07:54:50.326Z,133.50
2018-04-21T07:55:50.312Z,129.00
2018-04-21T07:56:50.325Z,132.70
2018-04-21T07:57:50.296Z,128.20
2018-04-21T07:58:50.292Z,123.30
2018-04-21T07:59:50.278Z,129.10
2018-04-21T08:00:50.276Z,126.60
2018-04-21T08:01:50.280Z,121.40
2018-04-21T08:02:50.252Z,131.40
2018-04-21T08:03:50.251Z,123.40
2018-04-21T08:04:50.240Z,118.10
2018-04-21T08:05:50.243Z,113.70
2018-04-21T08:06:50.234Z,120.10
2018-04-21T08:07:50.213Z,118.50
2018-04-21T08:08:50.201Z,112.10
2018-04-21T08:09:50.194Z,113.00
2018-04-21T08:10:50.181Z,112.50
2018-04-21T08:11:50.181Z,115.20
2018-04-21T08:12:50.196Z,111.80
2018-04-21T08:13:50.156Z,110.90
2018-04-21T08:14:50.146Z,115.00
2018-04-21T08:15:50.158Z,109.30
2018-04-21T08:16:50.140Z,109.10
2018-04-21T08:17:50.138Z,112.90
2018-04-21T08:18:50.114Z,110.80
2018-04-21T08:19:50.105Z,109.90
2018-04-21T08:20:50.108Z,109.20
2018-04-21T08:21:50.095Z,103.20
2018-04-21T08:22:50.081Z,99.60
2018-04-21T08:23:50.075Z,99.60
2018-04-21T08:24:50.063Z,97.90
2018-04-21T08:25:50.152Z,99.20
2018-04-21T08:26:50.050Z,94.80
2018-04-21T08:27:50.040Z,88.70
2018-04-21T08:28:50.084Z,88.00
2018-04-21T08:29:50.023Z,83.90
2018-04-21T08:30:50.018Z,91.50
2018-04-21T08:31:50.015Z,84.40
2018-04-21T08:32:49.998Z,88.30
2018-04-21T08:33:50.006Z,90.30
2018-04-21T08:34:49.979Z,92.70
2018-04-21T08:35:49.981Z,85.20
2018-04-21T08:36:49.967Z,88.40
2018-04-21T08:37:49.984Z,84.30
2018-04-21T08:38:49.946Z,83.90
2018-04-21T08:39:49.938Z,86.40
2018-04-21T08:40:49.934Z,86.10
2018-04-21T08:41:49.928Z,84.40
2018-04-21T08:42:49.912Z,83.80
2018-04-21T08:43:49.901Z,76.40
2018-04-21T08:44:49.896Z,79.40
2018-04-21T08:45:49.898Z,79.80
2018-04-21T08:46:49.986Z,84.80
2018-04-21T08:47:49.867Z,86.50
2018-04-21T08:48:49.858Z,81.70
2018-04-21T08:49:49.845Z,83.00
2018-04-21T08:50:49.837Z,72.40
2018-04-21T08:51:49.831Z,78.70
2018-04-21T08:52:49.828Z,79.00
2018-04-21T08:53:49.823Z,83.10
2018-04-21T08:54:49.805Z,77.00
2018-04-21T08:55:49.891Z,78.00
2018-04-21T08:56:49.785Z,77.30
2018-04-21T08:57:49.780Z,75.40
2018-04-21T08:58:49.832Z,77.50
2018-04-21T08:59:49.764Z,74.70
2018-04-21T09:00:49.758Z,74.70
2018-04-21T09:01:49.746Z,74.70
2018-04-21T09:02:49.744Z,67.40
2018-04-21T09:03:49.725Z,78.30
2018-04-21T09:04:49.717Z,73.40
2018-04-21T09:05:49.715Z,69.80
2018-04-21T09:06:49.709Z,72.70
2018-04-21T09:07:49.690Z,68.60
2018-04-21T09:08:49.791Z,68.70
2018-04-21T09:09:49.680Z,65.90
2018-04-21T09:10:49.663Z,70.30
2018-04-21T09:11:49.657Z,72.00
2018-04-21T09:12:49.647Z,64.90
2018-04-21T09:13:49.639Z,66.30
2018-04-21T09:14:49.631Z,69.20
2018-04-21T09:15:49.644Z,64.80
2018-04-21T09:16:49.614Z,69.90
2018-04-21T09:17:49.610Z,62.00
2018-04-21T09:18:49.597Z,66.00
2018-04-21T09:19:49.596Z,68.80
2018-04-21T09:20:49.583Z,63.90
2018-04-21T09:21:49.589Z,61.60
2018-04-21T09:22:49.567Z,65.90
2018-04-21T09:23:49.556Z,71.80
2018-04-21T09:24:49.552Z,70.80
2018-04-21T09:25:49.551Z,68.20
2018-04-21T09:26:49.532Z,66.60
2018-04-21T09:27:49.525Z,63.90
2018-04-21T09:28:49.516Z,66.90
2018-04-21T09:29:49.517Z,67.00
2018-04-21T09:30:49.502Z,61.70
2018-04-21T09:31:49.495Z,65.50
2018-04-21T09:32:49.495Z,63.40
2018-04-21T09:33:49.494Z,63.20
2018-04-21T09:34:49.469Z,64.60
2018-04-21T09:35:49.465Z,64.30
2018-04-21T09:36:49.459Z,61.70
2018-04-21T09:37:49.454Z,61.20
2018-04-21T09:38:49.456Z,63.90
2018-04-21T09:39:49.441Z,61.60
2018-04-21T09:40:49.445Z,60.70
2018-04-21T09:41:49.453Z,56.90
2018-04-21T09:42:49.428Z,60.10
2018-04-21T09:43:49.428Z,62.20
2018-04-21T09:44:49.430Z,65.50
2018-04-21T09:45:49.427Z,60.40
2018-04-21T09:46:49.419Z,62.00
2018-04-21T09:47:49.426Z,62.80
2018-04-21T09:48:49.423Z,60.60
2018-04-21T09:49:49.420Z,55.20
2018-04-21T09:50:49.410Z,52.10
2018-04-21T09:51:49.411Z,54.80
2018-04-21T09:52:49.408Z,60.20
2018-04-21T09:53:49.415Z,53.40
2018-04-21T09:54:49.416Z,53.60
2018-04-21T09:55:49.411Z,53.10
2018-04-21T09:56:49.411Z,54.00
2018-04-21T09:57:49.405Z,56.80
2018-04-21T09:58:49.410Z,50.90
2018-04-21T09:59:49.512Z,53.80
2018-04-21T10:00:49.416Z,53.70
2018-04-21T10:01:49.409Z,50.10
2018-04-21T10:02:49.417Z,55.40
2018-04-21T10:03:49.421Z,49.10
2018-04-21T10:04:49.422Z,53.60
2018-04-21T10:05:49.418Z,54.10
2018-04-21T10:06:49.421Z,56.60
2018-04-21T10:07:49.427Z,50.30
2018-04-21T10:08:49.421Z,48.60
2018-04-21T10:09:49.428Z,51.20
2018-04-21T10:10:49.427Z,49.40
2018-04-21T10:11:49.436Z,51.40
2018-04-21T10:12:49.439Z,46.60
2018-04-21T10:13:49.436Z,48.80
2018-04-21T10:14:49.472Z,46.90
2018-04-21T10:15:49.446Z,46.70
2018-04-21T10:16:49.441Z,52.40
2018-04-21T10:17:49.445Z,50.50
2018-04-21T10:18:49.445Z,43.70
2018-04-21T10:19:49.450Z,46.90
2018-04-21T10:20:49.457Z,44.40
2018-04-21T10:21:49.465Z,44.30
2018-04-21T10:22:49.473Z,44.10
2018-04-21T10:23:49.465Z,42.10
2018-04-21T10:24:49.506Z,42.00
2018-04-21T10:25:49.467Z,44.20
2018-04-21T10:26:49.476Z,45.70
2018-04-21T10:27:49.482Z,41.20
2018-04-21T10:28:49.480Z,41.00
2018-04-21T10:29:49.486Z,42.10
2018-04-21T10:30:49.496Z,43.70
2018-04-21T10:31:49.495Z,45.80
2018-04-21T10:32:49.498Z,40.70
2018-04-21T10:33:49.495Z,39.70
2018-04-21T10:34:49.506Z,42.30
2018-04-21T10:35:49.508Z,45.10
2018-04-21T10:36:49.512Z,48.80
2018-04-21T10:37:49.514Z,44.50
2018-04-21T10:38:49.585Z,38.40
2018-04-21T10:39:49.523Z,40.10
2018-04-21T10:40:49.531Z,41.10
2018-04-21T10:41:49.531Z,36.10
2018-04-21T10:42:49.532Z,35.50
2018-04-21T10:43:49.536Z,39.10
2018-04-21T10:44:49.543Z,38.00
2018-04-21T10:45:49.598Z,36.50
2018-04-21T10:46:49.548Z,30.70
2018-04-21T10:47:49.554Z,35.30
2018-04-21T10:48:49.556Z,35.50
2018-04-21T10:49:49.570Z,35.20
2018-04-21T10:50:49.717Z,32.40
2018-04-21T10:51:49.577Z,34.30
2018-04-21T10:52:49.581Z,35.60
2018-04-21T10:53:49.585Z,35.20
2018-04-21T10:54:49.585Z,32.90
2018-04-21T10:55:49.588Z,34.70
2018-04-21T10:56:49.590Z,34.70
2018-04-21T10:57:49.609Z,32.80
2018-04-21T10:58:49.609Z,30.30
2018-04-21T10:59:49.616Z,35.10
2018-04-21T11:00:49.615Z,32.40
2018-04-21T11:01:49.620Z,29.80
2018-04-21T11:02:49.637Z,28.50
2018-04-21T11:03:49.662Z,28.30
2018-04-21T11:04:49.626Z,29.00
2018-04-21T11:05:49.625Z,30.20
2018-04-21T11:06:49.635Z,30.10
2018-04-21T11:07:49.664Z,29.70
2018-04-21T11:08:49.654Z,30.30
2018-04-21T11:09:49.716Z,26.50
2018-04-21T11:10:49.651Z,26.40
2018-04-21T11:11:49.651Z,27.40
2018-04-21T11:12:49.654Z,26.60
2018-04-21T11:13:49.678Z,27.30
2018-04-21T11:14:49.679Z,28.00
2018-04-21T11:15:49.669Z,26.70
2018-04-21T11:16:49.681Z,22.20
2018-04-21T11:17:49.687Z,24.10
2018-04-21T11:18:49.689Z,21.40
2018-04-21T11:19:49.698Z,21.20
2018-04-21T11:20:49.691Z,23.80
2018-04-21T11:21:49.706Z,24.00
2018-04-21T11:22:49.759Z,23.30
2018-04-21T11:23:49.707Z,24.50
2018-04-21T11:24:49.772Z,20.90
2018-04-21T11:25:49.711Z,22.80
2018-04-21T11:26:49.724Z,22.50
2018-04-21T11:27:49.721Z,21.00
2018-04-21T11:28:49.728Z,23.40
2018-04-21T11:29:49.732Z,24.40
2018-04-21T11:30:49.755Z,22.40
2018-04-21T11:31:49.751Z,22.70
2018-04-21T11:32:49.749Z,20.50
2018-04-21T11:33:49.752Z,22.30
2018-04-21T11:34:49.769Z,21.40
2018-04-21T11:35:49.758Z,22.00
2018-04-21T11:36:49.770Z,21.90
2018-04-21T11:37:49.771Z,21.70
2018-04-21T11:38:49.776Z,18.70
2018-04-21T11:39:49.772Z,22.10
2018-04-21T11:40:49.777Z,21.40
2018-04-21T11:41:49.777Z,20.40
2018-04-21T11:42:49.786Z,20.00
2018-04-21T11:43:49.786Z,20.20
2018-04-21T11:44:49.791Z,19.90
2018-04-21T11:45:49.790Z,21.30
2018-04-21T11:46:49.795Z,21.00
2018-04-21T11:47:49.805Z,17.00
2018-04-21T11:48:49.813Z,17.30
2018-04-21T11:49:49.816Z,21.00
2018-04-21T11:50:49.805Z,17.30
2018-04-21T11:51:49.816Z,18.30
2018-04-21T11:52:49.832Z,20.30
2018-04-21T11:53:49.807Z,18.30
2018-04-21T11:54:49.808Z,17.00
2018-04-21T11:55:49.816Z,19.60
2018-04-21T11:56:49.810Z,18.10
2018-04-21T11:57:49.808Z,18.10
2018-04-21T11:58:49.808Z,17.10
2018-04-21T11:59:49.815Z,17.60
2018-04-21T12:00:49.821Z,16.90
2018-04-21T12:01:49.932Z,16.20
2018-04-21T12:02:49.821Z,17.90
2018-04-21T12:03:49.816Z,18.00
2018-04-21T12:04:49.813Z,16.60
2018-04-21T12:05:49.805Z,17.00
2018-04-21T12:06:49.805Z,17.40
2018-04-21T12:07:49.814Z,20.90
2018-04-21T12:08:49.818Z,19.50
2018-04-21T12:09:49.798Z,19.30
2018-04-21T12:10:49.915Z,19.20
2018-04-21T12:11:49.793Z,18.10
2018-04-21T12:12:49.792Z,18.10
2018-04-21T12:13:49.800Z,20.90
2018-04-21T12:14:49.792Z,19.70
2018-04-21T12:15:49.791Z,24.90
2018-04-21T12:16:49.783Z,19.60
2018-04-21T12:17:49.773Z,24.10
2018-04-21T12:18:49.766Z,20.20
2018-04-21T12:19:49.780Z,24.20
2018-04-21T12:20:49.901Z,22.80
2018-04-21T12:21:49.759Z,20.20
2018-04-21T12:22:49.756Z,20.10
2018-04-21T12:23:49.747Z,17.70
2018-04-21T12:24:49.757Z,18.80
2018-04-21T12:25:49.736Z,20.30
2018-04-21T12:26:49.732Z,19.30
2018-04-21T12:27:49.726Z,21.50
2018-04-21T12:28:49.740Z,21.10
2018-04-21T12:29:49.724Z,21.20
2018-04-21T12:30:49.712Z,20.30
2018-04-21T12:31:49.702Z,19.50
2018-04-21T12:32:49.703Z,23.00
2018-04-21T12:33:49.693Z,22.80
2018-04-21T12:34:49.684Z,19.20
2018-04-21T12:35:49.681Z,19.80
2018-04-21T12:36:49.683Z,21.90
2018-04-21T12:37:49.677Z,21.50
2018-04-21T12:38:49.868Z,21.60
2018-04-21T12:39:49.664Z,19.70
2018-04-21T12:40:49.649Z,20.70
2018-04-21T12:41:49.690Z,18.00